Time;durP1;ratioP1;P1;durP2;ratioP2;P2;SDS_P1;SDS_P2;PMS_P1;PMS_P2;Temp;Humidity;BMP_temperature;BMP_pressure;BME280_temperature;BME280_humidity;BME280_pressure;Samples;Min_cycle;Max_cycle;Signal;HPM_P1;HPM_P2
2021/01/27 00:02:05;;;;;;;8.00;1.70;;;17.80;25.10;;;;;;5106046;28;20027;-55
2021/01/27 00:04:32;;;;;;;7.70;1.30;;;17.80;24.50;;;;;;5106696;28;20389;-59
2021/01/27 00:06:58;;;;;;;6.88;1.42;;;17.80;24.60;;;;;;5108282;28;20027;-58
2021/01/27 00:09:25;;;;;;;;;;;17.80;24.70;;;;;;5108995;28;20040;-59
2021/01/27 00:11:52;;;;;;;15.57;1.85;;;17.90;24.70;;;;;;5097491;28;19915;-55
2021/01/27 00:14:18;;;;;;;;;;;18.20;23.90;;;;;;5106827;28;20051;-56
2021/01/27 00:16:45;;;;;;;11.07;2.20;;;18.90;23.20;;;;;;5089366;28;19919;-56
2021/01/27 00:19:11;;;;;;;12.93;1.88;;;20.20;21.90;;;;;;5103635;28;20024;-57
2021/01/27 00:21:38;;;;;;;7.30;1.50;;;21.80;20.70;;;;;;5105592;28;20437;-56
2021/01/27 00:24:06;;;;;;;7.32;1.65;;;21.20;19.50;;;;;;5104889;28;20384;-58
2021/01/27 00:26:32;;;;;;;6.60;1.88;;;20.10;21.00;;;;;;5103941;28;20015;-56
2021/01/27 00:28:58;;;;;;;4.72;1.50;;;19.50;22.20;;;;;;5110389;28;20027;-55
2021/01/27 00:31:25;;;;;;;8.57;1.95;;;18.80;22.10;;;;;;5084676;28;20058;-58
2021/01/27 00:33:52;;;;;;;11.63;2.00;;;18.20;23.10;;;;;;5102391;28;20024;-57
2021/01/27 00:36:19;;;;;;;6.97;2.05;;;17.80;23.80;;;;;;5089336;28;20037;-59
2021/01/27 00:38:46;;;;;;;8.02;1.90;;;17.50;23.80;;;;;;5084735;28;20030;-57
2021/01/27 00:41:12;;;;;;;;;;;17.20;24.10;;;;;;5083071;28;20480;-59
2021/01/27 00:43:38;;;;;;;6.80;1.45;;;17.30;24.90;;;;;;5090143;28;19904;-56
2021/01/27 00:46:05;;;;;;;;;;;17.10;24.40;;;;;;5085684;28;20028;-57
2021/01/27 00:48:31;;;;;;;8.30;1.65;;;16.80;24.60;;;;;;5080934;28;19911;-59
2021/01/27 00:50:58;;;;;;;10.63;1.77;;;16.70;25.80;;;;;;5083346;28;20086;-60
2021/01/27 00:53:24;;;;;;;;;;;16.70;26.10;;;;;;5087457;28;20036;-59
2021/01/27 00:55:50;;;;;;;10.30;1.42;;;16.70;25.90;;;;;;5079302;28;19943;-56
2021/01/27 00:58:17;;;;;;;;;;;16.50;25.70;;;;;;5085608;28;20435;-58
2021/01/27 01:00:44;;;;;;;11.38;1.98;;;16.30;25.90;;;;;;5085172;28;20356;-57
2021/01/27 01:03:11;;;;;;;6.13;2.03;;;16.00;26.50;;;;;;5076340;28;20112;-59
2021/01/27 01:05:41;;;;;;;7.50;2.00;;;15.90;27.10;;;;;;5083154;28;20016;-59
2021/01/27 01:08:13;;;;;;;6.75;2.05;;;15.70;27.00;;;;;;5080863;28;20027;-56
2021/01/27 01:10:42;;;;;;;7.55;2.25;;;15.70;27.20;;;;;;5066287;28;20560;-56
2021/01/27 01:13:13;;;;;;;10.38;2.40;;;15.60;27.60;;;;;;5083927;28;20036;-58
2021/01/27 01:15:39;;;;;;;9.93;2.53;;;15.50;27.70;;;;;;5084654;28;20072;-59
2021/01/27 01:18:06;;;;;;;;;;;15.50;27.90;;;;;;5085645;28;20601;-60
2021/01/27 01:20:32;;;;;;;10.20;2.47;;;15.40;28.00;;;;;;5086304;28;19912;-55
2021/01/27 01:22:59;;;;;;;;;;;15.30;28.30;;;;;;5077886;28;20024;-57
2021/01/27 01:25:31;;;;;;;10.45;3.05;;;15.30;29.20;;;;;;5082294;28;20297;-58
2021/01/27 01:27:59;;;;;;;12.27;3.50;;;15.10;29.00;;;;;;5082685;28;20193;-60
2021/01/27 01:30:29;;;;;;;11.77;3.45;;;14.90;29.00;;;;;;5082234;28;20028;-59
2021/01/27 01:32:57;;;;;;;12.10;2.60;;;14.90;29.60;;;;;;5094900;28;20480;-59
2021/01/27 01:35:25;;;;;;;15.65;3.15;;;14.90;29.40;;;;;;5086021;28;20139;-58
2021/01/27 01:37:51;;;;;;;6.93;2.38;;;14.80;29.90;;;;;;5086546;28;20035;-59
2021/01/27 01:40:31;;;;;;;37.92;5.10;;;14.80;30.50;;;;;;5079775;28;20497;-58
2021/01/27 01:43:11;;;;;;;;;;;14.70;30.30;;;;;;5085156;28;20480;-59
2021/01/27 01:45:44;;;;;;;12.15;4.40;;;14.60;31.50;;;;;;5086938;28;19908;-58
2021/01/27 01:48:35;;;;;;;18.58;3.58;;;14.50;32.00;;;;;;5081161;28;20054;-58
2021/01/27 01:51:21;;;;;;;16.60;3.42;;;14.50;32.10;;;;;;5081670;28;20028;-58
2021/01/27 01:54:03;;;;;;;18.58;4.10;;;14.40;33.60;;;;;;5085296;28;20058;-59
2021/01/27 01:56:35;;;;;;;13.13;4.13;;;14.30;34.90;;;;;;5079605;28;20505;-57
2021/01/27 01:59:05;;;;;;;13.77;4.18;;;14.30;35.30;;;;;;5079996;28;20111;-59
2021/01/27 02:01:32;;;;;;;22.90;4.10;;;14.10;35.80;;;;;;5078335;28;20031;-58
2021/01/27 02:03:58;;;;;;;15.45;4.78;;;14.00;36.20;;;;;;5080828;28;20039;-59
2021/01/27 02:06:25;;;;;;;20.40;4.75;;;13.90;36.20;;;;;;5079437;28;20039;-59
2021/01/27 02:08:58;;;;;;;21.00;5.25;;;13.80;37.00;;;;;;5089142;28;20017;-58
2021/01/27 02:11:44;;;;;;;17.45;4.40;;;13.80;38.40;;;;;;5077979;28;20117;-59
2021/01/27 02:14:23;;;;;;;20.40;4.90;;;13.80;37.70;;;;;;5082915;28;20035;-56
2021/01/27 02:17:09;;;;;;;25.75;6.57;;;13.70;38.10;;;;;;5081248;28;20374;-56
2021/01/27 02:20:11;;;;;;;26.20;6.68;;;13.60;36.30;;;;;;5082059;28;20016;-59
2021/01/27 02:22:56;;;;;;;26.77;7.15;;;13.60;37.70;;;;;;5074791;28;20028;-60
2021/01/27 02:25:55;;;;;;;23.48;6.82;;;13.50;38.80;;;;;;5079994;28;20162;-60
2021/01/27 02:29:03;;;;;;;25.80;7.13;;;13.40;38.80;;;;;;5082210;28;20103;-59
2021/01/27 02:32:17;;;;;;;25.77;6.70;;;13.40;39.60;;;;;;5089363;28;20059;-59
2021/01/27 02:35:06;;;;;;;21.20;7.07;;;13.30;40.40;;;;;;5051132;28;20025;-61
2021/01/27 02:37:46;;;;;;;39.85;8.68;;;13.20;39.20;;;;;;5089324;28;20400;-60
2021/01/27 02:40:25;;;;;;;28.70;7.65;;;13.10;38.90;;;;;;5083169;28;20016;-60
2021/01/27 02:43:14;;;;;;;39.97;8.57;;;13.00;39.60;;;;;;5082080;28;20068;-60
2021/01/27 02:45:46;;;;;;;39.60;9.13;;;13.00;40.00;;;;;;5075598;28;20040;-60
2021/01/27 02:48:35;;;;;;;27.23;8.85;;;12.90;40.60;;;;;;5070290;28;20020;-60
2021/01/27 02:51:12;;;;;;;29.77;10.40;;;12.90;40.80;;;;;;5073797;28;20548;-60
2021/01/27 02:53:41;;;;;;;;;;;12.70;41.70;;;;;;5085641;28;20480;-60
2021/01/27 02:56:37;;;;;;;34.85;11.68;;;12.70;42.60;;;;;;5088974;28;20267;-60
2021/01/27 02:59:26;;;;;;;30.77;8.63;;;12.70;42.10;;;;;;5092287;28;20024;-59
2021/01/27 03:02:07;;;;;;;24.60;4.63;;;12.70;41.20;;;;;;5090513;28;20023;-60
2021/01/27 03:04:42;;;;;;;19.42;4.35;;;12.80;38.90;;;;;;5093769;28;20046;-59
2021/01/27 03:07:14;;;;;;;16.20;3.58;;;12.90;38.60;;;;;;5088041;28;20027;-59
2021/01/27 03:10:00;;;;;;;16.75;4.25;;;13.00;39.70;;;;;;5093826;28;20561;-62
2021/01/27 03:12:27;;;;;;;35.35;7.93;;;13.00;39.50;;;;;;5088590;28;20070;-60
2021/01/27 03:14:53;;;;;;;29.20;7.82;;;12.90;40.20;;;;;;5090219;28;20040;-61
2021/01/27 03:17:21;;;;;;;;;;;12.90;41.30;;;;;;5088118;28;20020;-59
2021/01/27 03:20:06;;;;;;;24.52;7.05;;;12.80;42.20;;;;;;5088274;28;19903;-59
2021/01/27 03:22:58;;;;;;;30.15;7.18;;;12.80;42.60;;;;;;5092741;28;20024;-59
2021/01/27 03:25:30;;;;;;;26.85;7.22;;;12.70;42.80;;;;;;5078584;28;20094;-59
2021/01/27 03:28:04;;;;;;;33.10;7.70;;;12.70;43.00;;;;;;5066496;28;20023;-60
2021/01/27 03:30:32;;;;;;;33.38;7.43;;;12.60;43.50;;;;;;5091472;28;20055;-58
2021/01/27 03:33:07;;;;;;;17.40;7.22;;;12.60;43.60;;;;;;5089844;28;20107;-59
2021/01/27 03:35:33;;;;;;;21.95;7.43;;;12.50;44.00;;;;;;5093833;28;20105;-56
2021/01/27 03:38:05;;;;;;;27.08;7.93;;;12.50;44.60;;;;;;5100736;28;20368;-58
2021/01/27 03:40:32;;;;;;;30.75;8.07;;;12.40;44.70;;;;;;5109563;28;20030;-60
2021/01/27 03:43:30;;;;;;;32.80;8.75;;;12.30;45.00;;;;;;5094200;28;20024;-58
2021/01/27 03:46:05;;;;;;;29.85;7.53;;;12.30;46.00;;;;;;5087798;28;20039;-59
2021/01/27 03:48:41;;;;;;;20.13;6.88;;;12.30;46.40;;;;;;5101248;28;20142;-55
2021/01/27 03:51:10;;;;;;;31.33;7.88;;;12.20;45.20;;;;;;5099916;28;20024;-58
2021/01/27 03:53:36;;;;;;;28.58;7.57;;;12.10;45.60;;;;;;5101972;28;20056;-59
2021/01/27 03:56:16;;;;;;;;;;;12.10;45.40;;;;;;5106338;28;20042;-58
2021/01/27 03:58:45;;;;;;;32.15;7.82;;;12.10;44.90;;;;;;5099492;28;19946;-61
2021/01/27 04:01:16;;;;;;;33.10;8.40;;;12.00;44.80;;;;;;5103511;28;20015;-59
2021/01/27 04:03:44;;;;;;;35.75;7.63;;;11.90;44.50;;;;;;5110193;28;20028;-58
2021/01/27 04:06:11;;;;;;;33.67;8.05;;;11.90;45.10;;;;;;5109141;28;20108;-59
2021/01/27 04:08:38;;;;;;;30.30;8.45;;;11.90;45.90;;;;;;5101937;28;20081;-58
2021/01/27 04:11:06;;;;;;;35.72;9.75;;;11.90;46.60;;;;;;5104454;27;20070;-60
2021/01/27 04:13:33;;;;;;;41.78;10.70;;;11.80;47.20;;;;;;5102940;28;20023;-61
2021/01/27 04:16:00;;;;;;;31.52;11.00;;;11.80;48.30;;;;;;5094611;28;20081;-58
2021/01/27 04:18:27;;;;;;;41.38;11.35;;;11.70;49.60;;;;;;5103929;28;20392;-58
2021/01/27 04:20:54;;;;;;;31.92;11.52;;;11.70;49.90;;;;;;5099442;28;20148;-59
2021/01/27 04:23:21;;;;;;;37.05;11.10;;;11.60;51.00;;;;;;5096973;28;20044;-58
2021/01/27 04:25:47;;;;;;;;;;;11.60;51.10;;;;;;5101952;28;20034;-54
2021/01/27 04:28:14;;;;;;;48.10;12.38;;;11.60;51.70;;;;;;5104961;28;20423;-61
2021/01/27 04:30:40;;;;;;;;;;;11.50;52.20;;;;;;5088678;28;20498;-58
2021/01/27 04:33:10;;;;;;;47.03;13.13;;;11.50;52.60;;;;;;5106576;28;20359;-56
2021/01/27 04:35:38;;;;;;;44.10;13.27;;;11.50;53.00;;;;;;5102676;28;20047;-57
2021/01/27 04:38:06;;;;;;;47.03;13.00;;;11.40;53.20;;;;;;5102288;28;20076;-57
2021/01/27 04:40:37;;;;;;;41.05;13.38;;;11.40;53.90;;;;;;5098344;28;20446;-56
2021/01/27 04:43:12;;;;;;;40.70;12.27;;;11.40;54.30;;;;;;5101383;28;20366;-57
2021/01/27 04:45:39;;;;;;;32.83;13.02;;;11.40;54.20;;;;;;5109836;28;20027;-58
2021/01/27 04:48:18;;;;;;;;;;;11.40;54.00;;;;;;5097394;28;20422;-59
2021/01/27 04:50:51;;;;;;;37.20;12.80;;;11.30;54.40;;;;;;5101735;28;19908;-58
2021/01/27 04:53:43;;;;;;;40.85;12.25;;;11.30;54.80;;;;;;5098628;28;20495;-57
2021/01/27 04:56:28;;;;;;;32.92;12.25;;;11.30;54.80;;;;;;5075454;28;20055;-59
2021/01/27 04:59:06;;;;;;;38.80;13.80;;;11.30;55.20;;;;;;5097064;28;20030;-57
2021/01/27 05:02:11;;;;;;;47.47;12.63;;;11.20;55.20;;;;;;5102490;28;20024;-58
2021/01/27 05:05:16;;;;;;;34.78;13.10;;;11.20;55.40;;;;;;5108303;28;20023;-59
2021/01/27 05:07:45;;;;;;;33.83;12.52;;;11.20;55.40;;;;;;5094556;28;20034;-54
2021/01/27 05:10:18;;;;;;;33.88;12.63;;;11.20;55.80;;;;;;5098751;28;20032;-54
2021/01/27 05:13:05;;;;;;;39.20;13.90;;;11.20;56.60;;;;;;5093494;28;20488;-58
2021/01/27 05:15:32;;;;;;;34.88;13.57;;;11.10;56.90;;;;;;5094561;28;20040;-56
2021/01/27 05:17:58;;;;;;;35.53;13.85;;;11.10;56.90;;;;;;5100447;28;20031;-58
2021/01/27 05:20:25;;;;;;;;;;;11.00;57.00;;;;;;5106995;28;20031;-58
2021/01/27 05:22:52;;;;;;;35.30;13.53;;;11.10;57.20;;;;;;5105057;28;19908;-57
2021/01/27 05:25:34;;;;;;;40.38;15.82;;;11.00;57.60;;;;;;5107180;28;20024;-58
2021/01/27 05:28:04;;;;;;;47.97;17.17;;;10.90;57.70;;;;;;5107376;28;20027;-56
2021/01/27 05:30:46;;;;;;;45.28;16.10;;;10.90;57.80;;;;;;5087421;28;20032;-58
2021/01/27 05:33:13;;;;;;;41.95;16.50;;;10.80;58.20;;;;;;5108761;28;20045;-59
2021/01/27 05:35:40;;;;;;;39.28;16.60;;;10.80;58.10;;;;;;5093152;28;20166;-55
2021/01/27 05:38:29;;;;;;;52.83;18.13;;;10.70;58.30;;;;;;5085990;28;20020;-57
2021/01/27 05:41:26;;;;;;;47.03;17.30;;;10.70;58.50;;;;;;5076589;28;20112;-54
2021/01/27 05:44:05;;;;;;;45.93;18.50;;;10.60;58.70;;;;;;5063171;28;20032;-56
2021/01/27 05:46:36;;;;;;;40.20;17.00;;;10.60;59.20;;;;;;5083482;28;20111;-57
2021/01/27 05:49:10;;;;;;;42.13;15.05;;;10.70;58.80;;;;;;5077543;28;20035;-57
2021/01/27 05:51:39;;;;;;;46.80;15.38;;;10.60;58.70;;;;;;5049360;28;20059;-58
2021/01/27 05:54:25;;;;;;;38.72;15.80;;;10.60;58.70;;;;;;5095098;28;20038;-56
2021/01/27 05:56:55;;;;;;;40.80;15.00;;;10.60;59.00;;;;;;5081542;28;20037;-55
2021/01/27 05:59:26;;;;;;;39.50;15.23;;;10.50;59.50;;;;;;5085150;28;20034;-58
2021/01/27 06:02:00;;;;;;;40.13;15.18;;;10.50;59.80;;;;;;5087275;28;20384;-57
2021/01/27 06:04:31;;;;;;;42.00;17.10;;;10.50;59.90;;;;;;5072334;28;20021;-57
2021/01/27 06:07:05;;;;;;;54.60;19.67;;;10.40;59.90;;;;;;5083053;28;20028;-55
2021/01/27 06:09:42;;;;;;;61.20;20.65;;;10.40;60.10;;;;;;5088870;28;20051;-58
2021/01/27 06:12:19;;;;;;;45.58;16.52;;;10.40;59.90;;;;;;5085306;28;20024;-57
2021/01/27 06:15:08;;;;;;;45.17;15.65;;;10.40;60.20;;;;;;5088792;28;20465;-57
2021/01/27 06:17:43;;;;;;;34.95;13.20;;;10.40;59.30;;;;;;5086262;28;20438;-57
2021/01/27 06:20:31;;;;;;;36.35;12.52;;;10.40;59.20;;;;;;5081901;28;20130;-56
2021/01/27 06:23:05;;;;;;;30.52;11.60;;;10.40;58.90;;;;;;5068778;28;20106;-54
2021/01/27 06:25:37;;;;;;;33.15;11.95;;;10.40;58.60;;;;;;5086603;28;20028;-59
2021/01/27 06:28:19;;;;;;;36.30;11.80;;;10.40;58.50;;;;;;5091417;28;20016;-53
2021/01/27 06:31:12;;;;;;;37.92;11.65;;;10.40;58.60;;;;;;5080185;28;20033;-53
2021/01/27 06:34:16;;;;;;;35.92;11.27;;;10.40;59.00;;;;;;5086750;28;20028;-54
2021/01/27 06:36:54;;;;;;;32.80;11.25;;;10.40;58.10;;;;;;5074996;28;20374;-56
2021/01/27 06:39:33;;;;;;;27.48;11.02;;;10.40;58.00;;;;;;5085774;28;20054;-53
2021/01/27 06:42:12;;;;;;;26.58;10.90;;;10.40;57.90;;;;;;5085732;28;20020;-57
2021/01/27 06:45:13;;;;;;;33.45;10.52;;;10.40;57.90;;;;;;5083094;28;20036;-54
2021/01/27 06:48:10;;;;;;;34.00;11.23;;;10.50;57.60;;;;;;5081347;28;20040;-58
2021/01/27 06:50:52;;;;;;;35.75;10.30;;;10.50;57.40;;;;;;5087308;28;20016;-57
2021/01/27 06:53:41;;;;;;;30.25;9.27;;;10.50;57.40;;;;;;5089790;28;20024;-54
2021/01/27 06:56:29;;;;;;;23.13;9.13;;;10.40;57.40;;;;;;5079119;28;20032;-56
2021/01/27 06:59:52;;;;;;;30.75;9.52;;;10.40;56.90;;;;;;5089891;28;20024;-54
2021/01/27 07:02:55;;;;;;;33.10;8.82;;;10.40;57.30;;;;;;5055525;28;20051;-57
2021/01/27 07:05:54;;;;;;;22.67;9.02;;;10.30;57.30;;;;;;5090133;28;20024;-56
2021/01/27 07:08:45;;;;;;;27.08;7.82;;;10.20;57.00;;;;;;5085878;28;20020;-56
2021/01/27 07:11:56;;;;;;;25.92;8.15;;;10.20;57.70;;;;;;5105801;28;20028;-53
2021/01/27 07:14:35;;;;;;;21.30;6.78;;;10.20;57.50;;;;;;5058403;28;20032;-55
2021/01/27 07:17:31;;;;;;;21.42;7.07;;;10.20;57.90;;;;;;5086666;28;20039;-57
2021/01/27 07:20:24;;;;;;;21.00;6.10;;;10.10;58.00;;;;;;5090186;28;20429;-55
2021/01/27 07:23:12;;;;;;;21.75;6.22;;;10.20;58.00;;;;;;5089236;28;20032;-58
2021/01/27 07:25:58;;;;;;;28.92;6.32;;;10.10;58.20;;;;;;5086086;28;20028;-56
2021/01/27 07:28:40;;;;;;;23.85;6.80;;;10.10;58.50;;;;;;5088911;28;20035;-57
2021/01/27 07:31:25;;;;;;;29.40;7.75;;;10.10;58.50;;;;;;5088754;28;20103;-56
2021/01/27 07:34:19;;;;;;;24.27;8.48;;;10.00;58.40;;;;;;5085880;28;20024;-58
2021/01/27 07:36:49;;;;;;;21.80;7.95;;;10.00;58.10;;;;;;5073899;28;20062;-57
2021/01/27 07:39:42;;;;;;;23.55;7.88;;;10.10;58.00;;;;;;5073868;28;20481;-56
2021/01/27 07:42:50;;;;;;;23.98;7.45;;;10.10;57.90;;;;;;5086188;28;20020;-57
2021/01/27 07:45:21;;;;;;;;;;;10.10;58.20;;;;;;5082765;28;20491;-55
2021/01/27 07:48:10;;;;;;;21.88;7.78;;;10.10;58.10;;;;;;5085219;28;19919;-57
2021/01/27 07:50:39;;;;;;;22.52;6.78;;;10.10;58.30;;;;;;5087229;28;20034;-56
2021/01/27 07:53:27;;;;;;;18.90;5.63;;;10.00;58.30;;;;;;5069005;28;20094;-60
2021/01/27 07:56:12;;;;;;;18.42;5.90;;;10.10;58.40;;;;;;5087800;28;20033;-60
2021/01/27 07:58:54;;;;;;;19.33;5.68;;;10.00;58.60;;;;;;5089565;28;20032;-57
2021/01/27 08:01:35;;;;;;;19.73;6.13;;;10.00;59.00;;;;;;5089638;28;20023;-58
2021/01/27 08:04:05;;;;;;;15.40;6.15;;;10.00;58.80;;;;;;5090870;28;20103;-57
2021/01/27 08:06:51;;;;;;;22.40;7.25;;;10.00;59.30;;;;;;5086581;28;20480;-57
2021/01/27 08:09:34;;;;;;;22.75;7.55;;;10.00;59.30;;;;;;5088825;28;20071;-56
2021/01/27 08:12:40;;;;;;;26.85;7.60;;;10.00;60.00;;;;;;5088004;28;20070;-55
2021/01/27 08:15:13;;;;;;;28.05;8.20;;;9.90;60.00;;;;;;5087720;28;20028;-57
2021/01/27 08:17:54;;;;;;;23.25;8.00;;;9.90;60.60;;;;;;5088234;28;20020;-58
2021/01/27 08:20:31;;;;;;;27.42;7.95;;;9.80;60.60;;;;;;5086000;28;20028;-56
2021/01/27 08:23:07;;;;;;;30.88;7.93;;;9.80;61.00;;;;;;5086013;28;20033;-57
2021/01/27 08:25:55;;;;;;;31.17;7.93;;;9.90;61.30;;;;;;5087936;28;20042;-56
2021/01/27 08:28:37;;;;;;;24.52;7.60;;;9.80;61.40;;;;;;5085861;28;20029;-58
2021/01/27 08:31:09;;;;;;;20.90;6.60;;;9.90;61.90;;;;;;5085572;28;20465;-56
2021/01/27 08:33:46;;;;;;;31.45;8.45;;;9.80;62.30;;;;;;5089562;28;20043;-55
2021/01/27 08:36:17;;;;;;;26.50;8.77;;;9.80;63.20;;;;;;5088560;28;20076;-56
2021/01/27 08:39:07;;;;;;;26.48;9.82;;;9.80;63.10;;;;;;5084312;28;20020;-58
2021/01/27 08:41:43;;;;;;;25.85;10.60;;;9.80;64.30;;;;;;5086482;28;20044;-58
2021/01/27 08:44:22;;;;;;;27.75;10.18;;;9.80;63.70;;;;;;5085991;28;20063;-57
2021/01/27 08:47:08;;;;;;;32.78;10.10;;;9.80;63.90;;;;;;5086845;28;20020;-55
2021/01/27 08:49:37;;;;;;;41.35;9.45;;;9.80;64.10;;;;;;5085792;28;20028;-57
2021/01/27 08:52:10;;;;;;;28.02;8.57;;;9.70;64.50;;;;;;5081227;28;20412;-58
2021/01/27 08:54:40;;;;;;;28.13;6.88;;;9.80;64.90;;;;;;5086837;28;20081;-58
2021/01/27 08:57:30;;;;;;;25.40;7.30;;;9.70;65.30;;;;;;5088377;28;20078;-57
2021/01/27 09:00:33;;;;;;;22.08;6.72;;;9.70;65.90;;;;;;5088469;28;20023;-55
2021/01/27 09:03:02;;;;;;;20.90;6.78;;;9.60;65.70;;;;;;5079031;28;20091;-54
2021/01/27 09:05:29;;;;;;;21.58;6.50;;;9.60;66.40;;;;;;5091238;28;20016;-56
2021/01/27 09:08:10;;;;;;;25.23;7.15;;;9.60;66.70;;;;;;5086951;28;20035;-56
2021/01/27 09:10:43;;;;;;;19.85;6.72;;;9.60;67.10;;;;;;5086775;28;20091;-57
2021/01/27 09:13:31;;;;;;;27.15;7.45;;;9.50;67.70;;;;;;5084232;28;20077;-55
2021/01/27 09:16:17;;;;;;;23.48;7.03;;;9.60;67.70;;;;;;5083948;28;20033;-56
2021/01/27 09:19:14;;;;;;;27.63;10.27;;;9.50;68.10;;;;;;5083741;28;20035;-54
2021/01/27 09:21:41;;;;;;;35.42;12.23;;;9.40;68.60;;;;;;5084689;28;20508;-54
2021/01/27 09:24:30;;;;;;;;;;;9.40;69.40;;;;;;5084162;28;20077;-55
2021/01/27 09:26:56;;;;;;;29.98;14.77;;;9.40;69.20;;;;;;5073846;28;19908;-54
2021/01/27 09:29:23;;;;;;;;;;;9.30;69.10;;;;;;5087019;28;20074;-57
2021/01/27 09:31:51;;;;;;;32.92;13.55;;;9.40;69.60;;;;;;5080598;28;19918;-53
2021/01/27 09:34:24;;;;;;;32.58;13.93;;;9.30;69.50;;;;;;5085824;28;20032;-55
2021/01/27 09:37:04;;;;;;;38.70;13.55;;;9.20;69.80;;;;;;5083144;28;20044;-54
2021/01/27 09:39:34;;;;;;;32.97;12.70;;;9.20;70.90;;;;;;5084777;28;20368;-55
2021/01/27 09:42:27;;;;;;;29.17;11.23;;;9.20;71.20;;;;;;5086395;28;20080;-53
2021/01/27 09:45:06;;;;;;;28.98;11.63;;;9.20;71.30;;;;;;5080613;28;20028;-55
2021/01/27 09:47:35;;;;;;;31.33;13.05;;;9.20;71.80;;;;;;5071441;28;20039;-55
2021/01/27 09:50:03;;;;;;;32.08;13.35;;;9.20;71.70;;;;;;5080982;28;20054;-55
2021/01/27 09:52:31;;;;;;;36.05;12.55;;;9.20;71.70;;;;;;5084843;28;20485;-53
2021/01/27 09:55:20;;;;;;;27.75;12.02;;;9.20;72.00;;;;;;5085509;28;20166;-57
2021/01/27 09:57:50;;;;;;;34.17;10.60;;;9.20;72.30;;;;;;5087984;28;20035;-57
2021/01/27 10:00:41;;;;;;;28.98;10.07;;;9.20;72.30;;;;;;5084572;28;20465;-58
2021/01/27 10:03:27;;;;;;;27.40;8.80;;;9.10;73.40;;;;;;5084439;28;20037;-53
2021/01/27 10:05:54;;;;;;;21.60;6.55;;;9.10;73.70;;;;;;5080299;28;20111;-58
2021/01/27 10:08:35;;;;;;;19.23;6.30;;;9.00;73.90;;;;;;5083382;28;20028;-54
2021/01/27 10:11:11;;;;;;;27.10;6.55;;;9.00;74.60;;;;;;5086952;28;20058;-56
2021/01/27 10:13:41;;;;;;;24.47;6.67;;;9.00;74.90;;;;;;5087807;28;20024;-57
2021/01/27 10:16:16;;;;;;;20.65;6.03;;;8.90;75.90;;;;;;5070997;28;20046;-57
2021/01/27 10:19:04;;;;;;;18.17;6.28;;;9.00;75.40;;;;;;5085239;28;20016;-55
2021/01/27 10:21:46;;;;;;;24.55;7.45;;;8.90;75.80;;;;;;5077926;28;20038;-58
2021/01/27 10:24:37;;;;;;;20.23;8.13;;;8.80;76.60;;;;;;5069204;28;20028;-58
2021/01/27 10:27:05;;;;;;;26.63;9.60;;;8.70;77.00;;;;;;5085170;28;20382;-55
2021/01/27 10:29:36;;;;;;;21.60;9.18;;;8.70;77.20;;;;;;5085459;28;20477;-54
2021/01/27 10:32:41;;;;;;;28.05;8.77;;;8.70;77.80;;;;;;5085320;28;20043;-57
2021/01/27 10:35:20;;;;;;;22.58;9.30;;;8.70;77.80;;;;;;5084704;28;20036;-55
2021/01/27 10:37:46;;;;;;;19.08;8.48;;;8.70;78.40;;;;;;5106927;28;20063;-59
2021/01/27 10:40:12;;;;;;;;;;;8.70;78.10;;;;;;5107416;28;20016;-56
2021/01/27 10:42:42;;;;;;;25.10;10.25;;;8.70;77.10;;;;;;5110407;28;19961;-59
2021/01/27 10:45:21;;;;;;;23.83;8.70;;;8.60;77.30;;;;;;5104623;28;20028;-60
2021/01/27 10:48:07;;;;;;;23.80;9.45;;;8.70;77.80;;;;;;5105943;28;20080;-58
2021/01/27 10:50:36;;;;;;;25.17;9.95;;;8.60;77.30;;;;;;5104664;28;20024;-57
2021/01/27 10:53:05;;;;;;;29.85;10.52;;;8.70;78.00;;;;;;5107699;28;20016;-59
2021/01/27 10:55:35;;;;;;;25.85;10.82;;;8.60;78.00;;;;;;5108425;28;20042;-57
2021/01/27 10:58:06;;;;;;;25.88;10.57;;;8.60;78.00;;;;;;5110418;28;20031;-57
2021/01/27 11:00:32;;;;;;;31.67;11.30;;;8.60;78.60;;;;;;5109231;28;20468;-57
2021/01/27 11:02:59;;;;;;;26.08;9.70;;;8.60;78.30;;;;;;5103361;28;20595;-57
2021/01/27 11:05:27;;;;;;;34.53;10.43;;;8.60;78.10;;;;;;5110035;28;20510;-56
2021/01/27 11:07:55;;;;;;;34.80;19.20;;;8.60;78.10;;;;;;5110200;28;20024;-54
2021/01/27 11:10:23;;;;;;;79.75;49.40;;;8.60;78.40;;;;;;5098440;28;20019;-57
2021/01/27 11:12:50;;;;;;;106.95;75.07;;;8.50;78.90;;;;;;5113040;28;20385;-56
2021/01/27 11:15:17;;;;;;;101.22;65.95;;;8.50;78.80;;;;;;5109330;28;20035;-57
2021/01/27 11:17:44;;;;;;;80.47;51.58;;;8.40;78.50;;;;;;5091807;28;20377;-58
2021/01/27 11:20:11;;;;;;;67.13;36.83;;;8.50;79.30;;;;;;5109212;28;20553;-57
2021/01/27 11:22:38;;;;;;;47.63;24.60;;;8.30;79.10;;;;;;5105880;28;20519;-58
2021/01/27 11:25:04;;;;;;;;;;;8.40;79.10;;;;;;5106730;28;20487;-56
2021/01/27 11:27:31;;;;;;;31.83;13.02;;;8.30;79.10;;;;;;5108623;28;19981;-57
2021/01/27 11:29:57;;;;;;;;;;;8.30;79.40;;;;;;5104560;28;20488;-58
2021/01/27 11:32:23;;;;;;;32.38;12.88;;;8.30;79.20;;;;;;5099787;28;19903;-57
2021/01/27 11:34:49;;;;;;;;;;;8.30;79.80;;;;;;5106062;28;20032;-59
2021/01/27 11:37:16;;;;;;;35.10;13.35;;;8.30;79.00;;;;;;5110233;28;19926;-56
2021/01/27 11:39:42;;;;;;;;;;;8.30;79.20;;;;;;5106496;28;20019;-55
2021/01/27 11:42:09;;;;;;;42.45;15.30;;;8.20;80.00;;;;;;5098726;28;20284;-56
2021/01/27 11:44:36;;;;;;;41.17;17.30;;;8.20;80.10;;;;;;5106000;28;20031;-56
2021/01/27 11:47:02;;;;;;;;;;;8.20;80.30;;;;;;5109231;28;20085;-55
2021/01/27 11:49:28;;;;;;;41.60;15.82;;;8.20;80.80;;;;;;5109641;28;19911;-54
2021/01/27 11:51:56;;;;;;;;;;;8.10;81.00;;;;;;5100957;28;20027;-56
2021/01/27 11:54:23;;;;;;;;;;;8.20;81.90;;;;;;5106834;28;19915;-60
2021/01/27 11:56:50;;;;;;;34.58;15.68;;;8.20;82.40;;;;;;5100006;28;19915;-57
2021/01/27 11:59:16;;;;;;;43.72;15.85;;;8.10;82.20;;;;;;5105317;28;20077;-55
2021/01/27 12:01:42;;;;;;;;;;;8.10;82.40;;;;;;5113959;28;20022;-57
2021/01/27 12:04:09;;;;;;;37.30;12.70;;;8.10;83.50;;;;;;5099669;28;19946;-58
2021/01/27 12:06:35;;;;;;;;;;;8.00;84.90;;;;;;5104249;28;20024;-58
2021/01/27 12:09:02;;;;;;;34.97;12.60;;;8.00;84.60;;;;;;5111228;28;20006;-54
2021/01/27 12:11:28;;;;;;;;;;;8.00;85.10;;;;;;5110943;28;20046;-57
2021/01/27 12:13:54;;;;;;;31.45;13.13;;;8.00;84.80;;;;;;5100754;28;20364;-56
2021/01/27 12:16:20;;;;;;;;;;;8.00;85.10;;;;;;5109018;28;20036;-52
2021/01/27 12:18:47;;;;;;;33.05;12.43;;;8.00;85.50;;;;;;5106918;28;19915;-55
2021/01/27 12:21:14;;;;;;;34.97;12.25;;;8.00;85.60;;;;;;5105480;28;20019;-58
2021/01/27 12:23:40;;;;;;;;;;;8.00;85.30;;;;;;5094314;28;20049;-54
2021/01/27 12:26:06;;;;;;;39.70;11.85;;;7.90;85.60;;;;;;5109613;28;20329;-59
2021/01/27 12:28:32;;;;;;;;;;;8.00;85.40;;;;;;5106696;28;20019;-54
2021/01/27 12:30:59;;;;;;;38.88;13.38;;;7.90;84.90;;;;;;5108503;28;19990;-57
2021/01/27 12:33:26;;;;;;;32.63;12.05;;;7.90;85.70;;;;;;5107595;28;20053;-59
2021/01/27 12:35:52;;;;;;;;;;;7.90;86.90;;;;;;5110315;28;20043;-56
2021/01/27 12:38:19;;;;;;;27.75;12.55;;;7.80;86.70;;;;;;5103319;28;20036;-57
2021/01/27 12:40:47;;;;;;;42.05;13.18;;;7.80;87.40;;;;;;5101260;28;20106;-57
2021/01/27 12:43:14;;;;;;;32.03;12.10;;;7.80;87.40;;;;;;5109763;28;20024;-55
2021/01/27 12:45:41;;;;;;;35.50;12.90;;;7.80;87.60;;;;;;5106349;28;20023;-55
2021/01/27 12:48:07;;;;;;;;;;;7.80;87.50;;;;;;5110057;28;20031;-58
2021/01/27 12:50:34;;;;;;;35.55;14.55;;;7.80;87.60;;;;;;5109401;28;20001;-55
2021/01/27 12:53:00;;;;;;;;;;;7.80;87.20;;;;;;5107866;28;20020;-57
2021/01/27 12:55:26;;;;;;;50.10;17.40;;;7.70;87.20;;;;;;5090969;28;20364;-56
2021/01/27 12:57:52;;;;;;;;;;;7.70;88.10;;;;;;5106451;28;20024;-59
2021/01/27 13:00:23;;;;;;;40.55;16.80;;;7.80;87.80;;;;;;5104643;28;19914;-56
2021/01/27 13:02:51;;;;;;;43.45;16.63;;;7.80;87.20;;;;;;5106549;28;20027;-56
2021/01/27 13:05:19;;;;;;;39.60;14.88;;;7.70;86.90;;;;;;5109735;28;20468;-56
2021/01/27 13:07:46;;;;;;;44.88;15.20;;;7.70;87.00;;;;;;5106717;28;20050;-57
2021/01/27 13:10:14;;;;;;;36.28;13.82;;;7.70;87.00;;;;;;5106254;28;20027;-55
2021/01/27 13:12:42;;;;;;;40.65;13.20;;;7.70;86.90;;;;;;5093266;28;20070;-57
2021/01/27 13:15:13;;;;;;;33.25;12.32;;;7.60;86.00;;;;;;5104667;28;20028;-55
2021/01/27 13:17:40;;;;;;;29.20;13.10;;;7.60;86.20;;;;;;5107527;28;20034;-58
2021/01/27 13:20:09;;;;;;;34.83;12.40;;;7.60;85.70;;;;;;5105403;28;20044;-55
2021/01/27 13:22:36;;;;;;;28.50;12.32;;;7.60;85.50;;;;;;5109642;28;20024;-57
2021/01/27 13:25:05;;;;;;;32.13;13.25;;;7.50;85.20;;;;;;5108154;28;20016;-57
2021/01/27 13:27:32;;;;;;;38.25;15.40;;;7.60;85.90;;;;;;5105699;28;20475;-58
2021/01/27 13:29:58;;;;;;;;;;;7.50;85.60;;;;;;5105168;28;20016;-55